createdAt,value
2022-09-14T00:00:02.969Z,78
2022-09-14T00:03:03.282Z,78
2022-09-14T00:06:02.951Z,78
2022-09-14T00:09:03.030Z,78
2022-09-14T00:12:02.909Z,78
2022-09-14T00:15:02.869Z,78
2022-09-14T00:18:02.945Z,78
2022-09-14T00:21:02.894Z,78
2022-09-14T00:24:02.876Z,78
2022-09-14T00:27:02.902Z,78
2022-09-14T00:30:03.457Z,78
2022-09-14T00:33:02.907Z,78
2022-09-14T00:36:02.958Z,78
2022-09-14T00:39:03.147Z,78
2022-09-14T00:42:02.899Z,78.3
2022-09-14T00:45:02.866Z,78.3
2022-09-14T00:48:02.899Z,78.3
2022-09-14T00:51:02.899Z,78.5
2022-09-14T00:54:02.925Z,78.5
2022-09-14T00:57:02.926Z,78.5
2022-09-14T01:00:02.921Z,78.5
2022-09-14T01:03:02.918Z,78.5
2022-09-14T01:06:02.942Z,78.5
2022-09-14T01:09:02.896Z,78.5
2022-09-14T01:12:02.875Z,78.5
2022-09-14T01:15:02.882Z,78.5
2022-09-14T01:18:02.856Z,79.3
2022-09-14T01:21:02.901Z,79.3
2022-09-14T01:24:02.882Z,79.3
2022-09-14T01:27:02.890Z,79.3
2022-09-14T01:30:02.865Z,79.3
2022-09-14T01:33:02.898Z,79.3
2022-09-14T01:36:02.908Z,79.3
2022-09-14T01:39:02.926Z,79.3
2022-09-14T01:42:02.890Z,79.3
2022-09-14T01:45:02.893Z,79.3
2022-09-14T01:48:02.873Z,79.7
2022-09-14T01:51:02.903Z,79.7
2022-09-14T01:54:02.913Z,79.7
2022-09-14T01:57:02.902Z,79.7
2022-09-14T02:00:03.028Z,79.7
2022-09-14T02:03:03.017Z,79.7
2022-09-14T02:06:02.905Z,79.7
2022-09-14T02:09:02.951Z,80.8
2022-09-14T02:12:03.137Z,80.8
2022-09-14T02:15:02.930Z,80.8
2022-09-14T02:18:02.923Z,80.8
2022-09-14T02:21:02.911Z,80.8
2022-09-14T02:24:02.926Z,80.8
2022-09-14T02:27:02.916Z,80.8
2022-09-14T02:30:02.969Z,80.8
2022-09-14T02:33:02.927Z,80.8
2022-09-14T02:36:02.942Z,80.8
2022-09-14T02:39:02.939Z,80.8
2022-09-14T02:42:02.928Z,80.1
2022-09-14T02:45:02.918Z,80.1
2022-09-14T02:48:02.903Z,80.1
2022-09-14T02:51:02.891Z,80.1
2022-09-14T02:54:02.909Z,80.1
2022-09-14T02:57:02.852Z,80.1
2022-09-14T03:00:02.891Z,80.2
2022-09-14T03:03:02.850Z,80.2
2022-09-14T03:06:02.881Z,80.2
2022-09-14T03:09:02.901Z,80.2
2022-09-14T03:12:02.898Z,80.2
2022-09-14T03:15:02.896Z,81.1
2022-09-14T03:18:02.922Z,81.1
2022-09-14T03:21:02.889Z,81.1
2022-09-14T03:24:02.898Z,81.1
2022-09-14T03:27:02.915Z,81.1
2022-09-14T03:30:02.963Z,81.1
2022-09-14T03:33:02.915Z,81.1
2022-09-14T03:36:02.977Z,81.5
2022-09-14T03:39:02.903Z,81.5
2022-09-14T03:42:03.003Z,81.5
2022-09-14T03:45:02.933Z,81.5
2022-09-14T03:48:02.875Z,81.5
2022-09-14T03:51:02.877Z,81.5
2022-09-14T03:54:02.905Z,81.5
2022-09-14T03:57:02.945Z,81.5
2022-09-14T04:00:02.953Z,81.5
2022-09-14T04:03:03.135Z,81.5
2022-09-14T04:06:02.902Z,81.5
2022-09-14T04:09:02.918Z,81.5
2022-09-14T04:12:02.899Z,81
2022-09-14T04:15:02.902Z,81
2022-09-14T04:18:02.892Z,81
2022-09-14T04:21:10.461Z,81
2022-09-14T04:24:18.765Z,81
2022-09-14T04:27:02.909Z,81
2022-09-14T04:30:02.874Z,80.4
2022-09-14T04:33:02.899Z,80.4
2022-09-14T04:36:02.942Z,80.4
2022-09-14T04:39:02.930Z,80.4
2022-09-14T04:42:02.929Z,80.4
2022-09-14T04:45:02.997Z,80.4
2022-09-14T04:48:02.936Z,80.4
2022-09-14T04:51:02.910Z,80.4
2022-09-14T04:54:03.245Z,80.4
2022-09-14T04:57:02.918Z,80.4
2022-09-14T05:00:02.951Z,80.4
2022-09-14T05:03:03.248Z,80.4
2022-09-14T05:06:03.008Z,80.4
2022-09-14T05:09:03.009Z,80.4
2022-09-14T05:12:02.931Z,80.4
2022-09-14T05:15:02.982Z,80.4
2022-09-14T05:18:02.982Z,80.4
2022-09-14T05:21:10.629Z,80.4
2022-09-14T05:24:03.063Z,80.4
2022-09-14T05:27:04.733Z,80.4
2022-09-14T05:30:03.356Z,82.3
2022-09-14T05:33:02.954Z,82.3
2022-09-14T05:36:03.025Z,82.3
2022-09-14T05:39:02.925Z,82.3
2022-09-14T05:42:03.002Z,82.3
2022-09-14T05:45:02.986Z,82.3
2022-09-14T05:48:02.938Z,82.3
2022-09-14T05:51:02.962Z,82.3
2022-09-14T05:54:03.149Z,82.3
2022-09-14T05:57:02.978Z,82.3
2022-09-14T06:00:03.068Z,82.3
2022-09-14T06:03:02.999Z,82.3
2022-09-14T06:06:02.981Z,82.3
2022-09-14T06:09:02.942Z,82.3
2022-09-14T06:12:02.999Z,82.3
2022-09-14T06:15:02.944Z,82.3
2022-09-14T06:18:03.048Z,82.3
2022-09-14T06:21:02.968Z,82.3
2022-09-14T06:24:02.991Z,84.4
2022-09-14T06:27:03.008Z,84.4
2022-09-14T06:30:03.093Z,84.4
2022-09-14T06:33:02.936Z,84.6
2022-09-14T06:36:02.984Z,84.6
2022-09-14T06:39:03.030Z,84.6
2022-09-14T06:42:03.006Z,84.6
2022-09-14T06:45:02.973Z,84.6
2022-09-14T06:48:02.979Z,84.6
2022-09-14T06:51:02.983Z,84.6
2022-09-14T06:54:03.010Z,84.6
2022-09-14T06:57:02.985Z,84.6
2022-09-14T07:00:03.172Z,84.6
2022-09-14T07:03:03.164Z,84.6
2022-09-14T07:06:02.991Z,84.6
2022-09-14T07:09:02.954Z,85.2
2022-09-14T07:12:02.960Z,85.2
2022-09-14T07:15:02.932Z,85.2
2022-09-14T07:18:02.943Z,85.2
2022-09-14T07:21:08.090Z,85.3
2022-09-14T07:24:02.942Z,85.3
2022-09-14T07:27:02.942Z,85.3
2022-09-14T07:30:03.042Z,85.3
2022-09-14T07:33:02.936Z,85.3
2022-09-14T07:36:02.983Z,85.3
2022-09-14T07:39:03.078Z,84.9
2022-09-14T07:42:02.965Z,84.9
2022-09-14T07:45:02.920Z,84.9
2022-09-14T07:48:03.065Z,84.9
2022-09-14T07:51:02.936Z,84.9
2022-09-14T07:54:02.958Z,84.9
2022-09-14T07:57:02.975Z,84.9
2022-09-14T08:00:03.067Z,84.9
2022-09-14T08:03:02.905Z,85
2022-09-14T08:06:02.961Z,85
2022-09-14T08:09:02.987Z,85
2022-09-14T08:12:03.023Z,85
2022-09-14T08:15:02.986Z,85
2022-09-14T08:18:03.007Z,85
2022-09-14T08:21:02.895Z,84.8
2022-09-14T08:24:02.968Z,84.1
2022-09-14T08:27:02.941Z,84.1
2022-09-14T08:30:03.081Z,84.1
2022-09-14T08:33:04.407Z,84.1
2022-09-14T08:36:02.952Z,84.1
2022-09-14T08:39:02.956Z,84.1
2022-09-14T08:42:02.955Z,84.1
2022-09-14T08:45:06.290Z,82
2022-09-14T08:48:02.994Z,82
2022-09-14T08:51:02.943Z,82
2022-09-14T08:54:02.983Z,82
2022-09-14T08:57:02.919Z,82
2022-09-14T09:00:03.037Z,82
2022-09-14T09:03:02.953Z,82
2022-09-14T09:06:03.015Z,82
2022-09-14T09:09:02.979Z,82
2022-09-14T09:12:02.912Z,81.1
2022-09-14T09:15:02.909Z,81.1
2022-09-14T09:18:02.963Z,81.1
2022-09-14T09:21:02.990Z,80.4
2022-09-14T09:24:02.995Z,80.4
2022-09-14T09:27:02.962Z,79
2022-09-14T09:30:02.960Z,79
2022-09-14T09:33:02.932Z,79
2022-09-14T09:36:03.025Z,79
2022-09-14T09:39:07.734Z,77.9
2022-09-14T09:42:02.968Z,77.9
2022-09-14T09:45:06.421Z,77.9
2022-09-14T09:48:02.976Z,77.9
2022-09-14T09:51:02.925Z,77.9
2022-09-14T09:54:02.958Z,76.9
2022-09-14T09:57:02.969Z,76.9
2022-09-14T10:00:03.027Z,76.9
2022-09-14T10:03:02.982Z,76.9
2022-09-14T10:06:02.899Z,73.2
2022-09-14T10:09:02.924Z,73.2
2022-09-14T10:12:03.037Z,73.2
2022-09-14T10:15:02.961Z,73.2
2022-09-14T10:18:03.017Z,73.2
2022-09-14T10:21:02.980Z,73.6
2022-09-14T10:24:02.974Z,73.6
2022-09-14T10:27:02.971Z,73.6
2022-09-14T10:30:02.983Z,73.6
2022-09-14T10:33:02.939Z,73.6
2022-09-14T10:36:02.968Z,73.6
2022-09-14T10:39:02.937Z,73.6
2022-09-14T10:42:02.967Z,70
2022-09-14T10:45:02.944Z,70
2022-09-14T10:48:03.105Z,70
2022-09-14T10:51:03.035Z,70
2022-09-14T10:54:02.981Z,70
2022-09-14T10:57:03.046Z,70
2022-09-14T11:00:03.081Z,70
2022-09-14T11:03:03.135Z,70
2022-09-14T11:06:02.961Z,70
2022-09-14T11:09:03.032Z,70.1
2022-09-14T11:12:03.044Z,70.1
2022-09-14T11:15:02.975Z,70.1
2022-09-14T11:18:03.049Z,70.1
2022-09-14T11:21:02.897Z,69.7
2022-09-14T11:24:03.091Z,69.7
2022-09-14T11:27:02.946Z,69.7
2022-09-14T11:30:03.039Z,69.7
2022-09-14T11:33:02.936Z,69.7
2022-09-14T11:36:03.010Z,69.7
2022-09-14T11:39:09.214Z,69.7
2022-09-14T11:42:03.039Z,69.7
2022-09-14T11:45:02.939Z,69.7
2022-09-14T11:48:03.047Z,69.7
2022-09-14T11:51:02.968Z,69.7
2022-09-14T11:54:02.941Z,69.7
2022-09-14T11:57:02.909Z,69.7
2022-09-14T12:00:03.000Z,67
2022-09-14T12:03:03.293Z,67
2022-09-14T12:06:02.984Z,67
2022-09-14T12:09:03.007Z,67
2022-09-14T12:12:03.026Z,67
2022-09-14T12:15:02.997Z,67
2022-09-14T12:18:02.958Z,67
2022-09-14T12:21:03.000Z,67
2022-09-14T12:24:03.005Z,67
2022-09-14T12:27:02.980Z,67
2022-09-14T12:30:03.051Z,67
2022-09-14T12:33:02.932Z,67
2022-09-14T12:36:02.993Z,67
2022-09-14T12:39:02.962Z,67
2022-09-14T12:42:02.961Z,67
2022-09-14T12:45:03.004Z,67.9
2022-09-14T12:48:02.923Z,67.9
2022-09-14T12:51:02.911Z,67.9
2022-09-14T12:54:03.016Z,67.9
2022-09-14T12:57:02.910Z,67.9
2022-09-14T13:00:03.160Z,67.9
2022-09-14T13:03:02.894Z,67.9
2022-09-14T13:06:02.986Z,66.3
2022-09-14T13:09:05.289Z,66.3
2022-09-14T13:12:02.913Z,66.3
2022-09-14T13:15:02.970Z,66.3
2022-09-14T13:18:03.044Z,66.3
2022-09-14T13:21:02.925Z,66.3
2022-09-14T13:24:03.104Z,66.3
2022-09-14T13:27:02.931Z,66.3
2022-09-14T13:30:03.078Z,66.3
2022-09-14T13:33:02.903Z,66.3
2022-09-14T13:36:02.929Z,66.3
2022-09-14T13:39:02.914Z,66.3
2022-09-14T13:42:02.948Z,66.3
2022-09-14T13:45:02.977Z,65.8
2022-09-14T13:48:03.022Z,65.8
2022-09-14T13:51:02.956Z,65.8
2022-09-14T13:54:02.939Z,65.8
2022-09-14T13:57:02.957Z,65.8
2022-09-14T14:00:03.132Z,67.1
2022-09-14T14:03:03.250Z,67.1
2022-09-14T14:06:03.019Z,67.1
2022-09-14T14:09:03.019Z,67.1
2022-09-14T14:12:03.000Z,67.1
2022-09-14T14:15:02.996Z,67.1
2022-09-14T14:18:03.050Z,67.1
2022-09-14T14:21:02.934Z,67.1
2022-09-14T14:24:15.856Z,67.1
2022-09-14T14:27:02.955Z,69.3
2022-09-14T14:30:03.014Z,69.3
2022-09-14T14:33:02.951Z,69.3
2022-09-14T14:36:02.964Z,69.3
2022-09-14T14:39:02.955Z,69.3
2022-09-14T14:42:03.144Z,69.3
2022-09-14T14:45:02.929Z,69.3
2022-09-14T14:48:03.018Z,69.3
2022-09-14T14:51:02.997Z,69.3
2022-09-14T14:54:02.992Z,70.2
2022-09-14T14:57:02.986Z,70.2
2022-09-14T15:00:03.187Z,70.2
2022-09-14T15:03:02.954Z,70.2
2022-09-14T15:06:03.087Z,70.2
2022-09-14T15:09:02.979Z,70.2
2022-09-14T15:12:02.997Z,70.2
2022-09-14T15:15:02.992Z,70.2
2022-09-14T15:18:03.007Z,70.2
2022-09-14T15:21:02.932Z,70.2
2022-09-14T15:24:03.075Z,70.2
2022-09-14T15:27:02.903Z,70.2
2022-09-14T15:30:03.103Z,70.2
2022-09-14T15:33:02.987Z,70.2
2022-09-14T15:36:02.969Z,70.2
2022-09-14T15:39:02.935Z,73
2022-09-14T15:42:03.074Z,73
2022-09-14T15:45:02.945Z,73
2022-09-14T15:48:02.991Z,74.1
2022-09-14T15:51:02.949Z,75
2022-09-14T15:54:03.158Z,75
2022-09-14T15:57:02.908Z,75
2022-09-14T16:00:03.055Z,75
2022-09-14T16:03:02.968Z,75
2022-09-14T16:06:02.963Z,75
2022-09-14T16:09:03.044Z,75
2022-09-14T16:12:04.415Z,75
2022-09-14T16:15:02.982Z,75
2022-09-14T16:18:02.979Z,75
2022-09-14T16:21:02.941Z,75
2022-09-14T16:24:03.016Z,75
2022-09-14T16:27:02.925Z,75
2022-09-14T16:30:03.010Z,75
2022-09-14T16:33:04.170Z,77.4
2022-09-14T16:36:03.032Z,77.4
2022-09-14T16:39:02.932Z,77.4
2022-09-14T16:42:02.998Z,76.8
2022-09-14T16:45:02.946Z,76.8
2022-09-14T16:48:02.979Z,76.8
2022-09-14T16:51:02.947Z,76.8
2022-09-14T16:54:03.035Z,76.8
2022-09-14T16:57:02.942Z,76.8
2022-09-14T17:00:02.983Z,77.9
2022-09-14T17:03:02.905Z,77.9
2022-09-14T17:06:02.969Z,77.9
2022-09-14T17:09:02.967Z,77.9
2022-09-14T17:12:02.983Z,77.9
2022-09-14T17:15:02.955Z,77.9
2022-09-14T17:18:03.031Z,77.6
2022-09-14T17:21:02.990Z,77.6
2022-09-14T17:24:02.955Z,77.6
2022-09-14T17:27:02.924Z,77.6
2022-09-14T17:30:03.077Z,77.6
2022-09-14T17:33:02.987Z,78.3
2022-09-14T17:36:02.929Z,78.3
2022-09-14T17:39:02.878Z,78.3
2022-09-14T17:42:02.947Z,78.3
2022-09-14T17:45:02.925Z,78.3
2022-09-14T17:48:02.997Z,78.3
2022-09-14T17:51:02.874Z,78.3
2022-09-14T17:54:02.925Z,78.3
2022-09-14T17:57:02.862Z,78.3
2022-09-14T18:00:03.087Z,78.7
2022-09-14T18:03:02.889Z,78.7
2022-09-14T18:06:02.951Z,78.7
2022-09-14T18:09:02.918Z,78.7
2022-09-14T18:12:02.917Z,78.7
2022-09-14T18:15:02.852Z,78.7
2022-09-14T18:18:02.922Z,78.7
2022-09-14T18:21:02.909Z,78.7
2022-09-14T18:24:02.943Z,78.7
2022-09-14T18:27:02.875Z,79.1
2022-09-14T18:30:02.942Z,79.1
2022-09-14T18:33:02.875Z,79.4
2022-09-14T18:36:02.947Z,79.4
2022-09-14T18:39:02.907Z,79.4
2022-09-14T18:42:02.940Z,79.4
2022-09-14T18:45:02.907Z,79.4
2022-09-14T18:48:02.939Z,79.4
2022-09-14T18:51:02.915Z,79.4
2022-09-14T18:54:02.927Z,79.4
2022-09-14T18:57:02.897Z,79.4
2022-09-14T19:00:02.923Z,79.4
2022-09-14T19:03:02.937Z,79.4
2022-09-14T19:06:02.929Z,80.4
2022-09-14T19:09:02.899Z,80.4
2022-09-14T19:12:02.906Z,80.4
2022-09-14T19:15:02.874Z,80.4
2022-09-14T19:18:02.918Z,80.4
2022-09-14T19:21:09.451Z,80.4
2022-09-14T19:24:03.141Z,81.7
2022-09-14T19:27:02.859Z,81.7
2022-09-14T19:30:02.923Z,81.7
2022-09-14T19:33:02.874Z,82
2022-09-14T19:36:02.914Z,82
2022-09-14T19:39:02.859Z,82
2022-09-14T19:42:02.914Z,82
2022-09-14T19:45:02.924Z,82
2022-09-14T19:48:02.938Z,82
2022-09-14T19:51:02.856Z,82
2022-09-14T19:54:03.013Z,82
2022-09-14T19:57:02.937Z,82
2022-09-14T20:00:02.970Z,82
2022-09-14T20:03:03.116Z,82
2022-09-14T20:06:02.915Z,82
2022-09-14T20:09:02.875Z,82
2022-09-14T20:12:02.904Z,82
2022-09-14T20:15:02.883Z,82.3
2022-09-14T20:18:02.904Z,82.3
2022-09-14T20:21:02.914Z,82.3
2022-09-14T20:24:20.388Z,82.3
2022-09-14T20:27:02.899Z,82.3
2022-09-14T20:30:02.959Z,82.3
2022-09-14T20:33:02.920Z,82.3
2022-09-14T20:36:02.896Z,82.3
2022-09-14T20:39:02.899Z,82.3
2022-09-14T20:42:03.468Z,82.3
2022-09-14T20:45:03.137Z,82.3
2022-09-14T20:48:02.935Z,82.3
2022-09-14T20:51:02.932Z,82.3
2022-09-14T20:54:02.910Z,82.3
2022-09-14T20:57:07.036Z,82.3
2022-09-14T21:00:02.889Z,82.3
2022-09-14T21:03:03.145Z,82.3
2022-09-14T21:06:02.901Z,82.3
2022-09-14T21:09:02.947Z,82.3
2022-09-14T21:12:02.929Z,82.5
2022-09-14T21:15:02.901Z,82.5
2022-09-14T21:18:02.908Z,82.5
2022-09-14T21:21:05.376Z,82.5
2022-09-14T21:24:02.870Z,82.5
2022-09-14T21:27:02.923Z,82.5
2022-09-14T21:30:02.913Z,82.5
2022-09-14T21:33:02.887Z,82.5
2022-09-14T21:36:02.880Z,82.5
2022-09-14T21:39:02.894Z,82.5
2022-09-14T21:42:02.909Z,82.5
2022-09-14T21:45:02.875Z,82.5
2022-09-14T21:48:02.871Z,82.5
2022-09-14T21:51:02.895Z,82.5
2022-09-14T21:54:02.914Z,82.5
2022-09-14T21:57:02.878Z,82.5
2022-09-14T22:00:03.042Z,82.5
2022-09-14T22:03:03.043Z,82.7
2022-09-14T22:06:02.849Z,82.7
2022-09-14T22:09:02.905Z,82.7
2022-09-14T22:12:02.918Z,82.7
2022-09-14T22:15:02.897Z,82.7
2022-09-14T22:18:04.743Z,82.7
2022-09-14T22:21:02.910Z,82.7
2022-09-14T22:24:02.957Z,82.7
2022-09-14T22:27:02.848Z,82.7
2022-09-14T22:30:02.916Z,82.7
2022-09-14T22:33:02.873Z,82.7
2022-09-14T22:36:02.909Z,82.7
2022-09-14T22:39:02.872Z,82.7
2022-09-14T22:42:02.951Z,82.7
2022-09-14T22:45:02.896Z,82.7
2022-09-14T22:48:02.908Z,82.7
2022-09-14T22:51:02.888Z,82.7
2022-09-14T22:54:02.879Z,82.7
2022-09-14T22:57:02.875Z,82.7
2022-09-14T23:00:02.926Z,82.7
2022-09-14T23:03:03.133Z,82.9
2022-09-14T23:06:02.869Z,82.9
2022-09-14T23:09:02.911Z,82.9
2022-09-14T23:12:02.838Z,82.9
2022-09-14T23:15:02.896Z,82.9
2022-09-14T23:18:02.878Z,82.9
2022-09-14T23:21:02.886Z,82.9
2022-09-14T23:24:02.911Z,82.9
2022-09-14T23:27:02.883Z,82.9
2022-09-14T23:30:02.914Z,82.9
2022-09-14T23:33:02.867Z,82.9
2022-09-14T23:36:02.907Z,82.9
2022-09-14T23:39:02.904Z,82.9
2022-09-14T23:42:02.922Z,82.9
2022-09-14T23:45:02.937Z,82.9
2022-09-14T23:48:02.884Z,82.9
2022-09-14T23:51:03.006Z,82.9
2022-09-14T23:54:02.905Z,82.9
2022-09-14T23:57:02.985Z,82.8
